createdAt,value
2023-03-11T00:00:23.957Z,5.22
2023-03-11T00:02:53.953Z,5.32
2023-03-11T00:05:26.718Z,7.40
2023-03-11T00:07:54.480Z,6.60
2023-03-11T00:10:25.936Z,5.68
2023-03-11T00:12:53.352Z,5.50
2023-03-11T00:17:51.157Z,9.00
2023-03-11T00:20:26.390Z,6.45
2023-03-11T00:22:54.206Z,5.53
2023-03-11T00:25:23.959Z,6.15
2023-03-11T00:27:51.020Z,6.15
2023-03-11T00:30:19.879Z,5.63
2023-03-11T00:32:48.915Z,5.93
2023-03-11T00:35:19.530Z,3.53
2023-03-11T00:37:48.275Z,5.82
2023-03-11T00:40:17.679Z,8.13
2023-03-11T00:42:44.816Z,6.35
2023-03-11T00:45:12.104Z,3.83
2023-03-11T00:47:39.128Z,4.85
2023-03-11T00:50:08.093Z,3.13
2023-03-11T00:52:34.784Z,5.50
2023-03-11T00:57:29.174Z,4.03
2023-03-11T00:59:56.190Z,3.67
2023-03-11T01:02:23.245Z,3.40
2023-03-11T01:04:56.968Z,4.85
2023-03-11T01:07:23.928Z,3.95
2023-03-11T01:09:50.708Z,5.18
2023-03-11T01:14:44.372Z,6.45
2023-03-11T01:17:11.110Z,7.15
2023-03-11T01:22:04.702Z,6.57
2023-03-11T01:24:31.725Z,3.85
2023-03-11T01:26:58.492Z,3.47
2023-03-11T01:29:25.355Z,3.47
2023-03-11T01:31:52.138Z,5.35
2023-03-11T01:36:45.917Z,6.28
2023-03-11T01:39:12.701Z,6.55
2023-03-11T01:44:06.487Z,4.35
2023-03-11T01:46:53.680Z,5.65
2023-03-11T01:49:23.525Z,5.55
2023-03-11T01:51:54.186Z,2.97
2023-03-11T01:54:37.914Z,5.68
2023-03-11T01:57:12.577Z,4.72
2023-03-11T01:59:50.763Z,9.77
2023-03-11T02:02:25.604Z,5.13
2023-03-11T02:04:54.395Z,6.00
2023-03-11T02:07:21.517Z,6.53
2023-03-11T02:09:48.529Z,7.30
2023-03-11T02:12:15.828Z,6.18
2023-03-11T02:14:48.098Z,8.07
2023-03-11T02:17:15.320Z,10.63
2023-03-11T02:20:02.119Z,9.50
2023-03-11T02:22:33.385Z,6.53
2023-03-11T02:25:03.583Z,8.15
2023-03-11T02:27:33.049Z,7.75
2023-03-11T02:30:01.144Z,6.50
2023-03-11T02:32:28.906Z,10.10
2023-03-11T02:34:55.774Z,9.43
2023-03-11T02:39:51.798Z,13.77
2023-03-11T02:42:18.726Z,7.38
2023-03-11T02:44:49.364Z,9.32
2023-03-11T02:47:17.157Z,7.10
2023-03-11T02:49:44.302Z,8.48
2023-03-11T02:52:12.968Z,7.97
2023-03-11T02:54:39.695Z,8.68
2023-03-11T02:57:06.500Z,8.68
2023-03-11T03:01:59.872Z,7.75
2023-03-11T03:06:53.453Z,6.78
2023-03-11T03:11:46.884Z,7.38
2023-03-11T03:16:40.294Z,9.65
2023-03-11T03:21:33.964Z,11.63
2023-03-11T03:26:27.509Z,6.80
2023-03-11T03:31:21.799Z,7.78
2023-03-11T03:33:48.652Z,6.53
2023-03-11T03:38:42.812Z,7.45
2023-03-11T03:41:10.341Z,7.43
2023-03-11T03:43:37.662Z,7.55
2023-03-11T03:46:05.780Z,5.22
2023-03-11T03:48:32.750Z,5.28
2023-03-11T03:51:04.661Z,5.05
2023-03-11T03:53:33.189Z,6.47
2023-03-11T03:56:06.213Z,6.55
2023-03-11T03:58:33.058Z,6.57
2023-03-11T04:01:00.282Z,6.53
2023-03-11T04:03:28.011Z,5.78
2023-03-11T04:05:54.786Z,5.10
2023-03-11T04:08:21.550Z,4.47
2023-03-11T04:13:23.193Z,3.97
2023-03-11T04:18:16.624Z,6.68
2023-03-11T04:23:10.219Z,5.65
2023-03-11T04:25:37.052Z,5.57
2023-03-11T04:30:30.474Z,3.30
2023-03-11T04:32:57.169Z,5.13
2023-03-11T04:35:23.981Z,6.82
2023-03-11T04:40:17.861Z,5.20
2023-03-11T04:42:44.607Z,5.47
2023-03-11T04:45:11.578Z,5.93
2023-03-11T04:47:38.399Z,7.03
2023-03-11T04:52:32.188Z,5.72
2023-03-11T04:54:58.985Z,9.10
2023-03-11T04:59:52.482Z,7.40
2023-03-11T05:02:19.247Z,8.07
2023-03-11T05:07:12.841Z,7.20
2023-03-11T05:12:06.683Z,6.93
2023-03-11T05:14:33.524Z,6.57
2023-03-11T05:17:00.266Z,10.25
2023-03-11T05:22:03.901Z,7.43
2023-03-11T05:24:30.952Z,9.07
2023-03-11T05:26:57.772Z,8.40
2023-03-11T05:31:52.701Z,8.32
2023-03-11T05:34:19.740Z,7.68
2023-03-11T05:36:46.499Z,6.75
2023-03-11T05:39:13.347Z,5.90
2023-03-11T05:41:40.279Z,8.48
2023-03-11T05:44:07.394Z,8.40
2023-03-11T05:46:34.395Z,11.27
2023-03-11T05:49:01.773Z,10.77
2023-03-11T05:51:28.862Z,11.88
2023-03-11T05:53:55.955Z,7.47
2023-03-11T05:56:23.627Z,6.90
2023-03-11T05:58:50.421Z,5.53
2023-03-11T06:03:45.098Z,8.32
2023-03-11T06:06:13.498Z,5.78
2023-03-11T06:08:45.911Z,8.45
2023-03-11T06:11:12.680Z,6.10
2023-03-11T06:13:39.481Z,7.82
2023-03-11T06:18:33.305Z,8.50
2023-03-11T06:23:28.728Z,10.88
2023-03-11T06:26:00.255Z,10.68
2023-03-11T06:28:28.120Z,11.65
2023-03-11T06:30:56.793Z,11.75
2023-03-11T06:33:24.137Z,6.60
2023-03-11T06:35:58.381Z,7.80
2023-03-11T06:38:25.442Z,9.15
2023-03-11T06:40:52.857Z,14.60
2023-03-11T06:43:20.149Z,7.53
2023-03-11T06:45:47.059Z,11.25
2023-03-11T06:48:14.013Z,14.50
2023-03-11T06:50:40.886Z,8.75
2023-03-11T06:55:35.577Z,13.50
2023-03-11T06:58:02.673Z,12.57
2023-03-11T07:00:31.159Z,11.23
2023-03-11T07:02:58.194Z,9.15
2023-03-11T07:07:55.078Z,11.57
2023-03-11T07:10:21.975Z,10.45
2023-03-11T07:12:48.693Z,11.82
2023-03-11T07:15:15.553Z,11.60
2023-03-11T07:17:42.289Z,11.85
2023-03-11T07:20:09.846Z,11.85
2023-03-11T07:22:36.659Z,8.77
2023-03-11T07:27:30.162Z,13.05
2023-03-11T07:32:23.833Z,9.32
2023-03-11T07:34:50.623Z,7.43
2023-03-11T07:39:44.660Z,10.43
2023-03-11T07:42:11.718Z,11.57
2023-03-11T07:44:38.470Z,10.52
2023-03-11T07:49:32.839Z,13.02
2023-03-11T07:51:59.808Z,11.20
2023-03-11T07:54:26.657Z,12.55
2023-03-11T07:56:53.428Z,10.80
2023-03-11T08:01:47.383Z,11.40
2023-03-11T08:04:16.829Z,12.07
2023-03-11T08:06:46.995Z,10.05
2023-03-11T08:09:13.900Z,12.07
2023-03-11T08:11:41.282Z,11.32
2023-03-11T08:14:08.513Z,12.98
2023-03-11T08:16:35.354Z,11.07
2023-03-11T08:19:02.527Z,11.50
2023-03-11T08:21:32.086Z,14.73
2023-03-11T08:24:01.424Z,10.57
2023-03-11T08:26:28.863Z,16.10
2023-03-11T08:28:56.826Z,14.00
2023-03-11T08:31:32.407Z,19.13
2023-03-11T08:34:04.472Z,13.15
2023-03-11T08:36:32.345Z,15.95
2023-03-11T08:38:59.386Z,15.95
2023-03-11T08:41:27.086Z,20.95
2023-03-11T08:43:56.379Z,17.10
2023-03-11T08:46:27.960Z,14.90
2023-03-11T08:48:55.583Z,17.58
2023-03-11T08:51:23.208Z,17.13
2023-03-11T08:53:50.717Z,13.57
2023-03-11T08:56:17.547Z,14.65
2023-03-11T08:58:44.883Z,16.63
2023-03-11T09:01:13.183Z,16.15
2023-03-11T09:03:40.567Z,18.20
2023-03-11T09:06:11.250Z,17.95
2023-03-11T09:08:38.020Z,14.90
2023-03-11T09:13:33.046Z,20.63
2023-03-11T09:15:59.892Z,18.65
2023-03-11T09:18:27.337Z,20.33
2023-03-11T09:20:58.304Z,20.85
2023-03-11T09:23:25.357Z,20.08
2023-03-11T09:25:52.088Z,19.55
2023-03-11T09:30:45.541Z,21.58
2023-03-11T09:33:12.324Z,33.30
2023-03-11T09:35:39.719Z,30.23
2023-03-11T09:38:06.503Z,22.48
2023-03-11T09:43:44.345Z,22.88
2023-03-11T09:46:26.449Z,23.60
2023-03-11T09:49:15.869Z,22.73
2023-03-11T09:52:01.744Z,22.92
2023-03-11T09:54:30.667Z,38.60
2023-03-11T09:56:57.503Z,23.88
2023-03-11T09:59:31.930Z,27.88
2023-03-11T10:02:00.156Z,29.33
2023-03-11T10:04:38.453Z,27.05
2023-03-11T10:07:15.471Z,26.77
2023-03-11T10:09:51.086Z,24.95
2023-03-11T10:12:36.644Z,32.55
2023-03-11T10:15:18.096Z,27.60
2023-03-11T10:18:12.550Z,28.05
2023-03-11T10:20:39.244Z,25.73
2023-03-11T10:26:01.784Z,23.48
2023-03-11T10:28:47.540Z,27.08
2023-03-11T10:31:18.954Z,26.08
2023-03-11T10:33:54.939Z,24.88
2023-03-11T10:36:27.234Z,27.90
2023-03-11T10:38:55.738Z,26.67
2023-03-11T10:41:34.503Z,28.58
2023-03-11T10:44:06.411Z,26.30
2023-03-11T10:46:33.435Z,23.55
2023-03-11T10:49:00.195Z,29.52
2023-03-11T10:51:35.401Z,29.38
2023-03-11T10:54:03.609Z,26.42
2023-03-11T10:56:34.325Z,30.50
2023-03-11T10:59:02.755Z,23.48
2023-03-11T11:01:30.271Z,24.45
2023-03-11T11:04:00.824Z,28.58
2023-03-11T11:06:34.967Z,29.38
2023-03-11T11:09:22.312Z,25.95
2023-03-11T11:12:14.928Z,22.75
2023-03-11T11:14:50.679Z,21.75
2023-03-11T11:17:31.235Z,22.20
2023-03-11T11:19:59.282Z,26.25
2023-03-11T11:22:26.761Z,27.48
2023-03-11T11:24:56.490Z,29.05
2023-03-11T11:27:28.711Z,24.15
2023-03-11T11:30:04.665Z,22.30
2023-03-11T11:32:31.400Z,26.85
2023-03-11T11:35:08.366Z,25.38
2023-03-11T11:37:38.835Z,26.48
2023-03-11T11:40:23.663Z,24.00
2023-03-11T11:43:04.686Z,25.67
2023-03-11T11:45:44.535Z,29.63
2023-03-11T11:48:29.056Z,23.35
2023-03-11T11:51:02.485Z,26.13
2023-03-11T11:53:59.906Z,23.23
2023-03-11T11:56:27.744Z,22.77
2023-03-11T11:58:55.407Z,26.88
2023-03-11T12:01:46.891Z,25.00
2023-03-11T12:04:55.012Z,23.55
2023-03-11T12:07:33.841Z,21.42
2023-03-11T12:10:37.189Z,28.90
2023-03-11T12:13:34.817Z,27.05
2023-03-11T12:16:25.245Z,24.13
2023-03-11T12:19:10.180Z,24.13
2023-03-11T12:22:00.688Z,25.95
2023-03-11T12:25:09.866Z,27.65
2023-03-11T12:28:09.390Z,20.98
2023-03-11T12:30:46.372Z,24.17
2023-03-11T12:33:37.267Z,24.83
2023-03-11T12:36:05.408Z,22.65
2023-03-11T12:38:38.655Z,23.10
2023-03-11T12:41:14.617Z,25.13
2023-03-11T12:43:41.276Z,23.48
2023-03-11T12:46:09.000Z,21.23
2023-03-11T12:48:45.994Z,22.13
2023-03-11T12:51:28.366Z,22.75
2023-03-11T12:53:56.210Z,19.05
2023-03-11T12:56:43.747Z,23.08
2023-03-11T12:59:40.531Z,25.77
2023-03-11T13:02:10.117Z,21.27
2023-03-11T13:04:45.617Z,21.00
2023-03-11T13:07:27.055Z,18.95
2023-03-11T13:10:12.241Z,19.80
2023-03-11T13:12:41.278Z,23.83
2023-03-11T13:15:20.157Z,22.10
2023-03-11T13:18:26.654Z,20.20
2023-03-11T13:21:04.574Z,21.13
2023-03-11T13:23:42.856Z,23.83
2023-03-11T13:26:15.465Z,18.55
2023-03-11T13:28:45.267Z,19.10
2023-03-11T13:31:33.733Z,21.92
2023-03-11T13:34:03.674Z,20.35
2023-03-11T13:37:04.279Z,19.95
2023-03-11T13:39:42.482Z,18.60
2023-03-11T13:42:33.307Z,17.98
2023-03-11T13:45:00.496Z,20.98
2023-03-11T13:47:28.935Z,20.42
2023-03-11T13:50:24.476Z,19.23
2023-03-11T13:52:53.827Z,26.25
2023-03-11T13:55:43.068Z,17.10
2023-03-11T13:58:16.491Z,22.85
2023-03-11T14:01:00.284Z,17.60
2023-03-11T14:03:40.495Z,16.77
2023-03-11T14:06:11.286Z,18.95
2023-03-11T14:08:39.452Z,20.05
2023-03-11T14:11:11.536Z,26.13
2023-03-11T14:13:49.907Z,18.75
2023-03-11T14:16:18.973Z,19.70
2023-03-11T14:19:03.488Z,20.05
2023-03-11T14:21:33.639Z,19.13
2023-03-11T14:24:02.560Z,17.85
2023-03-11T14:26:31.786Z,18.38
2023-03-11T14:29:11.238Z,19.23
2023-03-11T14:31:44.065Z,22.08
2023-03-11T14:34:10.893Z,19.52
2023-03-11T14:36:48.443Z,21.55
2023-03-11T14:39:35.422Z,21.80
2023-03-11T14:42:26.715Z,21.08
2023-03-11T14:45:10.671Z,23.77
2023-03-11T14:47:47.092Z,22.83
2023-03-11T14:50:26.812Z,20.40
2023-03-11T14:52:59.054Z,22.90
2023-03-11T14:55:54.887Z,21.40
2023-03-11T14:58:31.044Z,19.75
2023-03-11T15:01:14.948Z,20.98
2023-03-11T15:03:46.700Z,23.73
2023-03-11T15:06:17.103Z,22.42
2023-03-11T15:08:59.979Z,22.48
2023-03-11T15:11:28.697Z,24.17
2023-03-11T15:14:17.023Z,28.08
2023-03-11T15:16:43.878Z,21.30
2023-03-11T15:19:28.671Z,21.73
2023-03-11T15:21:59.559Z,23.27
2023-03-11T15:24:29.230Z,18.50
2023-03-11T15:27:06.652Z,20.98
2023-03-11T15:29:34.630Z,23.10
2023-03-11T15:32:21.342Z,23.83
2023-03-11T15:35:04.426Z,20.67
2023-03-11T15:37:31.685Z,20.75
2023-03-11T15:40:43.954Z,21.52
2023-03-11T15:43:15.004Z,22.00
2023-03-11T15:45:42.989Z,22.48
2023-03-11T15:48:13.716Z,24.05
2023-03-11T15:50:57.658Z,21.33
2023-03-11T15:53:27.177Z,24.25
2023-03-11T15:56:03.876Z,23.13
2023-03-11T15:58:33.778Z,21.65
2023-03-11T16:01:03.554Z,22.23
2023-03-11T16:03:31.575Z,22.23
2023-03-11T16:05:58.547Z,23.25
2023-03-11T16:08:25.335Z,19.42
2023-03-11T16:10:52.192Z,23.77
2023-03-11T16:13:18.996Z,18.98
2023-03-11T16:15:47.077Z,22.38
2023-03-11T16:18:14.073Z,25.17
2023-03-11T16:20:53.069Z,19.90
2023-03-11T16:23:21.593Z,21.30
2023-03-11T16:25:48.864Z,24.13
2023-03-11T16:28:16.845Z,23.48
2023-03-11T16:30:44.479Z,23.70
2023-03-11T16:33:11.355Z,20.10
2023-03-11T16:35:38.344Z,21.85
2023-03-11T16:38:06.683Z,19.35
2023-03-11T16:40:33.520Z,21.98
2023-03-11T16:43:06.944Z,18.08
2023-03-11T16:45:33.910Z,20.30
2023-03-11T16:48:00.977Z,20.05
2023-03-11T16:50:28.100Z,20.65
2023-03-11T16:52:56.463Z,21.83
2023-03-11T16:55:25.359Z,24.67
2023-03-11T16:57:52.205Z,23.17
2023-03-11T17:00:19.269Z,24.45
2023-03-11T17:02:46.409Z,27.02
2023-03-11T17:05:13.402Z,23.23
2023-03-11T17:07:40.359Z,22.33
2023-03-11T17:10:08.502Z,22.23
2023-03-11T17:12:36.072Z,21.17
2023-03-11T17:15:05.912Z,22.65
2023-03-11T17:17:32.717Z,26.08
2023-03-11T17:19:59.608Z,21.63
2023-03-11T17:22:26.384Z,25.15
2023-03-11T17:24:53.647Z,25.90
2023-03-11T17:27:20.432Z,28.20
2023-03-11T17:29:47.257Z,24.30
2023-03-11T17:32:17.448Z,23.92
2023-03-11T17:34:44.772Z,26.73
2023-03-11T17:37:11.872Z,23.08
2023-03-11T17:39:38.653Z,29.63
2023-03-11T17:42:05.646Z,26.80
2023-03-11T17:44:48.577Z,25.52
2023-03-11T17:47:19.512Z,26.60
2023-03-11T17:49:46.446Z,26.50
2023-03-11T17:52:13.240Z,29.10
2023-03-11T17:54:49.369Z,25.50
2023-03-11T17:57:16.224Z,29.95
2023-03-11T17:59:43.105Z,26.77
2023-03-11T18:02:14.341Z,31.80
2023-03-11T18:04:43.327Z,30.08
2023-03-11T18:07:10.146Z,28.55
2023-03-11T18:09:36.868Z,33.08
2023-03-11T18:12:04.264Z,29.48
2023-03-11T18:14:30.995Z,31.52
2023-03-11T18:16:57.862Z,31.98
2023-03-11T18:19:24.702Z,28.92
2023-03-11T18:21:51.826Z,28.20
2023-03-11T18:24:18.604Z,31.60
2023-03-11T18:26:45.411Z,28.92
2023-03-11T18:29:12.210Z,29.83
2023-03-11T18:31:39.674Z,26.55
2023-03-11T18:34:13.361Z,27.33
2023-03-11T18:36:41.737Z,28.00
2023-03-11T18:39:12.563Z,24.60
2023-03-11T18:41:40.019Z,28.25
2023-03-11T18:44:07.318Z,30.02
2023-03-11T18:46:34.154Z,30.00
2023-03-11T18:49:02.415Z,28.00
2023-03-11T18:51:31.766Z,28.73
2023-03-11T18:53:59.693Z,31.23
2023-03-11T18:56:27.166Z,31.70
2023-03-11T18:58:55.661Z,27.80
2023-03-11T19:01:22.605Z,31.20
2023-03-11T19:03:52.577Z,30.95
2023-03-11T19:06:20.745Z,27.50
2023-03-11T19:08:48.040Z,29.85
2023-03-11T19:11:17.810Z,32.97
2023-03-11T19:13:47.286Z,26.48
2023-03-11T19:16:17.093Z,32.35
2023-03-11T19:18:43.938Z,31.50
2023-03-11T19:21:15.915Z,29.95
2023-03-11T19:23:43.346Z,29.50
2023-03-11T19:26:10.344Z,30.50
2023-03-11T19:28:37.153Z,34.00
2023-03-11T19:31:05.115Z,33.38
2023-03-11T19:33:32.549Z,29.60
2023-03-11T19:36:01.777Z,27.58
2023-03-11T19:38:29.247Z,24.88
2023-03-11T19:41:12.421Z,25.45
2023-03-11T19:43:39.384Z,23.15
2023-03-11T19:46:07.796Z,27.00
2023-03-11T19:48:34.999Z,26.88
2023-03-11T19:51:05.934Z,28.27
2023-03-11T19:53:34.632Z,33.55
2023-03-11T19:56:03.314Z,37.40
2023-03-11T19:58:30.945Z,31.88
2023-03-11T20:00:58.793Z,31.60
2023-03-11T20:03:26.772Z,28.08
2023-03-11T20:05:56.665Z,29.85
2023-03-11T20:08:25.392Z,36.55
2023-03-11T20:10:53.469Z,34.17
2023-03-11T20:13:21.552Z,35.28
2023-03-11T20:15:48.754Z,36.53
2023-03-11T20:18:15.635Z,40.15
2023-03-11T20:20:43.296Z,38.58
2023-03-11T20:23:10.751Z,42.85
2023-03-11T20:25:41.889Z,38.67
2023-03-11T20:28:09.110Z,46.80
2023-03-11T20:30:38.381Z,55.10
2023-03-11T20:33:05.550Z,46.03
2023-03-11T20:35:32.323Z,41.08
2023-03-11T20:38:00.843Z,41.42
2023-03-11T20:40:27.741Z,38.90
2023-03-11T20:42:54.494Z,36.38
2023-03-11T20:45:21.970Z,38.42
2023-03-11T20:47:50.729Z,38.63
2023-03-11T20:50:18.029Z,34.45
2023-03-11T20:52:44.973Z,35.70
2023-03-11T20:55:12.375Z,31.70
2023-03-11T20:57:40.458Z,33.60
2023-03-11T21:00:11.752Z,32.97
2023-03-11T21:02:40.294Z,32.55
2023-03-11T21:05:08.731Z,36.47
2023-03-11T21:07:35.836Z,29.25
2023-03-11T21:10:05.880Z,25.85
2023-03-11T21:12:32.817Z,29.45
2023-03-11T21:14:59.910Z,24.17
2023-03-11T21:17:26.709Z,31.40
2023-03-11T21:19:53.543Z,25.02
2023-03-11T21:22:20.498Z,27.05
2023-03-11T21:24:54.665Z,24.88
2023-03-11T21:27:26.313Z,25.20
2023-03-11T21:29:54.940Z,20.25
2023-03-11T21:32:22.711Z,19.90
2023-03-11T21:34:49.675Z,23.27
2023-03-11T21:37:17.071Z,18.90
2023-03-11T21:39:44.019Z,17.00
2023-03-11T21:42:10.925Z,18.23
2023-03-11T21:44:37.812Z,19.73
2023-03-11T21:47:05.685Z,19.90
2023-03-11T21:49:32.482Z,13.68
2023-03-11T21:54:29.287Z,10.00
2023-03-11T21:56:56.435Z,14.02
2023-03-11T21:59:25.518Z,14.68
2023-03-11T22:01:53.308Z,14.20
2023-03-11T22:04:20.371Z,12.27
2023-03-11T22:06:47.386Z,15.57
2023-03-11T22:09:14.320Z,12.38
2023-03-11T22:11:41.085Z,16.50
2023-03-11T22:14:08.226Z,14.98
2023-03-11T22:16:35.810Z,15.23
2023-03-11T22:19:05.185Z,15.73
2023-03-11T22:21:32.070Z,14.98
2023-03-11T22:24:00.092Z,13.20
2023-03-11T22:26:27.220Z,13.27
2023-03-11T22:28:54.088Z,13.43
2023-03-11T22:31:20.917Z,12.55
2023-03-11T22:33:47.788Z,13.77
2023-03-11T22:36:14.631Z,14.25
2023-03-11T22:38:44.234Z,13.25
2023-03-11T22:41:29.268Z,14.68
2023-03-11T22:43:56.114Z,15.50
2023-03-11T22:46:22.903Z,19.15
2023-03-11T22:48:49.745Z,10.93
2023-03-11T22:53:43.437Z,11.90
2023-03-11T22:56:13.864Z,14.32
2023-03-11T22:58:41.453Z,10.88
2023-03-11T23:01:08.967Z,12.50
2023-03-11T23:03:36.900Z,12.38
2023-03-11T23:06:06.433Z,10.57
2023-03-11T23:08:33.955Z,16.13
2023-03-11T23:11:06.618Z,10.13
2023-03-11T23:13:35.862Z,14.85
2023-03-11T23:16:09.333Z,11.23
2023-03-11T23:18:37.058Z,10.90
2023-03-11T23:21:04.304Z,10.48
2023-03-11T23:23:31.085Z,8.55
2023-03-11T23:28:24.583Z,10.57
2023-03-11T23:30:51.354Z,8.98
2023-03-11T23:35:44.904Z,9.45
2023-03-11T23:38:11.662Z,11.73
2023-03-11T23:40:40.798Z,12.68
2023-03-11T23:43:07.652Z,10.55
2023-03-11T23:48:01.000Z,8.68
2023-03-11T23:52:54.384Z,4.45
2023-03-11T23:57:48.074Z,6.68
